createdAt,value
2018-07-10T00:04:14.713Z,75.80
2018-07-10T00:09:09.299Z,75.60
2018-07-10T00:11:39.713Z,78.20
2018-07-10T00:14:10.443Z,79.90
2018-07-10T00:16:40.955Z,79.90
2018-07-10T00:19:11.385Z,80.30
2018-07-10T00:21:41.900Z,80.10
2018-07-10T00:24:12.273Z,78.50
2018-07-10T00:26:43.453Z,78.20
2018-07-10T00:29:13.907Z,77.90
2018-07-10T00:31:44.332Z,78.10
2018-07-10T00:34:14.855Z,79.30
2018-07-10T00:36:45.264Z,78.60
2018-07-10T00:39:16.434Z,79.30
2018-07-10T00:41:47.093Z,82.50
2018-07-10T00:44:17.660Z,82.60
2018-07-10T00:46:48.425Z,81.70
2018-07-10T00:49:18.911Z,81.50
2018-07-10T00:51:49.370Z,81.30
2018-07-10T00:54:19.951Z,82.40
2018-07-10T00:56:50.353Z,82.40
2018-07-10T00:59:21.145Z,81.50
2018-07-10T01:01:52.297Z,81.40
2018-07-10T01:04:23.339Z,81.00
2018-07-10T01:06:53.904Z,82.00
2018-07-10T01:09:24.422Z,81.80
2018-07-10T01:11:54.876Z,81.90
2018-07-10T01:14:25.372Z,81.70
2018-07-10T01:16:55.841Z,81.00
2018-07-10T01:19:26.431Z,80.90
2018-07-10T01:21:57.127Z,81.70
2018-07-10T01:24:27.684Z,80.80
2018-07-10T01:26:58.201Z,81.00
2018-07-10T01:29:33.843Z,80.60
2018-07-10T01:32:04.436Z,82.60
2018-07-10T01:34:34.905Z,82.90
2018-07-10T01:37:06.192Z,81.70
2018-07-10T01:42:31.006Z,81.00
2018-07-10T01:45:12.994Z,81.20
2018-07-10T01:50:40.260Z,81.50
2018-07-10T01:54:00.897Z,81.30
2018-07-10T01:56:54.954Z,81.30
2018-07-10T01:59:40.941Z,81.60
2018-07-10T02:02:22.173Z,81.30
2018-07-10T02:05:11.198Z,82.10
2018-07-10T02:07:56.014Z,82.00
2018-07-10T02:10:37.733Z,82.70
2018-07-10T02:13:20.739Z,83.40
2018-07-10T02:15:57.465Z,83.70
2018-07-10T02:21:15.042Z,83.60
2018-07-10T02:23:58.826Z,83.70
2018-07-10T02:26:43.936Z,85.50
2018-07-10T02:29:20.505Z,85.30
2018-07-10T02:31:51.171Z,85.50
2018-07-10T02:34:21.615Z,85.60
2018-07-10T02:36:52.053Z,85.60
2018-07-10T02:39:22.627Z,85.50
2018-07-10T02:41:53.593Z,84.30
2018-07-10T02:44:24.293Z,84.60
2018-07-10T02:46:54.977Z,84.70
2018-07-10T02:49:25.713Z,84.90
2018-07-10T02:52:06.962Z,85.00
2018-07-10T02:54:43.803Z,85.40
2018-07-10T02:57:14.894Z,85.90
2018-07-10T02:59:46.701Z,85.50
2018-07-10T03:02:27.732Z,86.30
2018-07-10T03:07:38.868Z,85.80
2018-07-10T03:22:05.581Z,86.50
2018-07-10T03:55:24.831Z,87.30
2018-07-10T05:32:18.412Z,92.20
2018-07-10T05:57:58.642Z,93.20
2018-07-10T06:27:59.414Z,95.20
2018-07-10T06:31:07.733Z,95.40
2018-07-10T12:28:10.968Z,97.20
2018-07-10T12:30:41.950Z,91.20
2018-07-10T13:53:14.457Z,84.50
2018-07-10T13:56:09.753Z,84.50
2018-07-10T13:58:46.166Z,85.30
2018-07-10T14:04:54.016Z,82.40
2018-07-10T14:08:04.955Z,82.70
2018-07-10T14:11:16.558Z,83.80
2018-07-10T14:14:19.481Z,83.10
2018-07-10T14:17:09.297Z,81.80
2018-07-10T14:20:12.413Z,82.90
2018-07-10T14:23:01.031Z,81.60
2018-07-10T14:26:04.382Z,81.80
2018-07-10T14:34:34.832Z,81.40
2018-07-10T14:37:28.677Z,81.70
2018-07-10T14:40:10.796Z,81.80
2018-07-10T14:42:59.457Z,80.90
2018-07-10T14:47:36.836Z,80.90
2018-07-10T14:57:49.390Z,80.20
2018-07-10T15:00:42.921Z,80.20
2018-07-10T15:03:34.240Z,80.20
2018-07-10T15:06:35.220Z,77.60
2018-07-10T15:09:23.955Z,78.10
2018-07-10T15:12:27.029Z,77.50
2018-07-10T15:15:40.334Z,77.40
2018-07-10T15:18:42.538Z,76.50
2018-07-10T15:28:08.843Z,76.80
2018-07-10T15:31:02.970Z,76.70
2018-07-10T15:34:05.717Z,77.60
2018-07-10T15:36:54.708Z,76.30
2018-07-10T15:39:42.423Z,76.20
2018-07-10T15:42:32.448Z,76.30
2018-07-10T15:45:37.261Z,76.70
2018-07-10T15:48:24.958Z,76.20
2018-07-10T15:56:59.874Z,76.90
2018-07-10T16:00:14.487Z,74.90
2018-07-10T16:10:36.600Z,73.50
2018-07-10T16:20:05.941Z,73.70
2018-07-10T16:23:05.057Z,73.10
2018-07-10T16:26:02.557Z,72.10
2018-07-10T16:29:09.962Z,72.80
2018-07-10T16:31:46.931Z,72.10
2018-07-10T16:34:39.379Z,72.10
2018-07-10T16:38:11.115Z,74.10
2018-07-10T16:50:26.267Z,72.60
2018-07-10T16:53:45.241Z,70.90
2018-07-10T17:03:42.398Z,71.20
2018-07-10T17:07:03.216Z,70.70
2018-07-10T17:11:23.594Z,72.10
2018-07-10T18:30:16.214Z,72.30
2018-07-10T18:33:12.428Z,72.50
2018-07-10T18:44:26.155Z,72.40
2018-07-10T18:47:14.966Z,71.80
2018-07-10T18:49:54.867Z,72.80
2018-07-10T18:52:29.250Z,73.00
2018-07-10T18:55:01.528Z,73.10
2018-07-10T18:58:01.083Z,72.50
2018-07-10T19:00:48.287Z,72.70
2018-07-10T19:03:21.288Z,72.80
2018-07-10T19:05:55.704Z,72.80
2018-07-10T19:10:57.327Z,73.80
2018-07-10T19:13:28.619Z,74.10
2018-07-10T19:16:04.026Z,73.70
2018-07-10T19:18:39.043Z,73.60
2018-07-10T19:21:30.517Z,72.90
2018-07-10T19:24:13.111Z,73.20
2018-07-10T19:26:45.943Z,73.40
2018-07-10T19:29:39.001Z,73.60
2018-07-10T19:32:10.009Z,73.80
2018-07-10T19:34:42.013Z,73.70
2018-07-10T19:37:13.673Z,73.80
2018-07-10T19:39:45.995Z,74.40
2018-07-10T19:42:16.955Z,74.00
2018-07-10T19:44:51.874Z,74.00
2018-07-10T19:47:25.526Z,74.80
2018-07-10T19:50:00.463Z,73.90
2018-07-10T19:52:32.150Z,74.20
2018-07-10T19:55:04.256Z,74.40
2018-07-10T20:00:46.698Z,74.40
2018-07-10T20:03:29.277Z,74.80
2018-07-10T20:06:11.535Z,74.90
2018-07-10T20:08:50.598Z,75.50
2018-07-10T20:11:35.703Z,75.50
2018-07-10T20:14:11.410Z,75.00
2018-07-10T20:16:51.700Z,75.10
2018-07-10T20:19:57.469Z,75.00
2018-07-10T20:22:39.904Z,75.60
2018-07-10T20:27:38.302Z,75.10
2018-07-10T20:30:53.778Z,75.60
2018-07-10T20:34:41.513Z,76.00
2018-07-10T20:37:24.228Z,75.90
2018-07-10T20:39:54.930Z,77.00
2018-07-10T20:42:30.973Z,76.50
2018-07-10T20:45:17.503Z,76.60
2018-07-10T20:47:55.254Z,77.40
2018-07-10T20:50:36.792Z,77.60
2018-07-10T20:55:17.452Z,77.90
2018-07-10T20:58:01.937Z,77.90
2018-07-10T21:00:41.615Z,78.20
2018-07-10T21:04:25.484Z,79.10
2018-07-10T21:07:29.710Z,79.90
2018-07-10T21:10:13.966Z,80.50
2018-07-10T21:13:07.208Z,80.30
2018-07-10T21:16:13.488Z,80.50
2018-07-10T21:18:58.499Z,80.40
2018-07-10T21:21:46.567Z,80.60
2018-07-10T21:24:31.252Z,80.40
2018-07-10T21:27:05.880Z,80.40
2018-07-10T21:32:00.758Z,80.90
2018-07-10T21:34:45.002Z,81.20
2018-07-10T21:39:36.850Z,81.20
2018-07-10T21:44:26.451Z,81.00
2018-07-10T21:47:14.194Z,81.90
2018-07-10T21:49:48.339Z,81.90
2018-07-10T21:52:20.163Z,81.80
2018-07-10T21:54:54.638Z,81.50
2018-07-10T21:57:33.943Z,81.80
2018-07-10T22:00:10.044Z,81.70
2018-07-10T22:02:41.620Z,81.80
2018-07-10T22:05:13.823Z,82.30
2018-07-10T22:07:44.993Z,81.60
2018-07-10T22:10:17.721Z,81.70
2018-07-10T22:12:48.894Z,82.50
2018-07-10T22:15:19.643Z,82.30
2018-07-10T22:17:54.262Z,82.80
2018-07-10T22:20:27.300Z,83.10
2018-07-10T22:22:59.663Z,83.40
2018-07-10T22:25:32.345Z,83.80
2018-07-10T22:28:03.012Z,84.20
2018-07-10T22:32:44.540Z,84.30
2018-07-10T22:35:16.401Z,84.60
2018-07-10T22:37:51.807Z,85.40
2018-07-10T22:40:23.287Z,85.40
2018-07-10T22:42:59.326Z,85.70
2018-07-10T22:45:33.411Z,85.30
2018-07-10T22:48:12.408Z,85.90
2018-07-10T22:50:43.600Z,85.40
2018-07-10T22:53:15.964Z,85.40
2018-07-10T22:55:47.637Z,85.50
2018-07-10T22:58:20.846Z,85.80
2018-07-10T23:00:51.572Z,86.10
2018-07-10T23:03:23.174Z,86.50
2018-07-10T23:05:56.532Z,86.70
2018-07-10T23:11:08.707Z,86.40
2018-07-10T23:13:41.272Z,86.30
2018-07-10T23:16:13.271Z,87.00
2018-07-10T23:18:46.995Z,87.20
2018-07-10T23:21:19.822Z,87.40
2018-07-10T23:23:53.578Z,87.80
2018-07-10T23:26:26.194Z,88.20
2018-07-10T23:28:56.777Z,88.00
2018-07-10T23:31:31.797Z,88.40
2018-07-10T23:34:18.685Z,88.90
2018-07-10T23:36:59.367Z,89.00
2018-07-10T23:39:43.581Z,88.90
2018-07-10T23:42:41.490Z,89.00
2018-07-10T23:45:29.273Z,89.00
2018-07-10T23:48:04.840Z,89.40
2018-07-10T23:50:45.070Z,89.40
2018-07-10T23:53:54.494Z,90.00
2018-07-10T23:56:32.465Z,90.10
2018-07-10T23:59:09.144Z,90.30
